createdAt,value
2023-04-20T00:01:07.126Z,6.18
2023-04-20T00:03:35.371Z,6.15
2023-04-20T00:06:02.404Z,6.11
2023-04-20T00:08:29.267Z,6.09
2023-04-20T00:10:55.861Z,6.09
2023-04-20T00:13:22.579Z,6.08
2023-04-20T00:15:49.280Z,6.06
2023-04-20T00:18:16.443Z,6.04
2023-04-20T00:20:43.213Z,6.00
2023-04-20T00:23:10.080Z,5.92
2023-04-20T00:25:36.911Z,5.85
2023-04-20T00:28:03.673Z,5.84
2023-04-20T00:30:30.391Z,5.80
2023-04-20T00:32:57.245Z,5.79
2023-04-20T00:35:24.140Z,5.79
2023-04-20T00:37:51.201Z,5.76
2023-04-20T00:40:17.784Z,5.71
2023-04-20T00:42:44.632Z,5.68
2023-04-20T00:45:11.352Z,5.68
2023-04-20T00:47:39.021Z,5.69
2023-04-20T00:50:07.258Z,5.70
2023-04-20T00:52:34.171Z,5.70
2023-04-20T00:55:01.313Z,5.69
2023-04-20T00:57:28.480Z,5.69
2023-04-20T00:59:55.390Z,5.69
2023-04-20T01:02:22.146Z,5.67
2023-04-20T01:04:49.144Z,5.66
2023-04-20T01:07:15.992Z,5.67
2023-04-20T01:09:43.067Z,5.66
2023-04-20T01:12:10.570Z,5.66
2023-04-20T01:14:37.733Z,5.66
2023-04-20T01:17:04.589Z,5.70
2023-04-20T01:19:31.165Z,5.70
2023-04-20T01:21:57.750Z,5.70
2023-04-20T01:24:24.490Z,5.69
2023-04-20T01:26:51.347Z,5.69
2023-04-20T01:29:18.257Z,5.70
2023-04-20T01:31:45.078Z,5.72
2023-04-20T01:34:11.768Z,5.74
2023-04-20T01:36:38.654Z,5.76
2023-04-20T01:39:05.524Z,5.74
2023-04-20T01:41:32.094Z,5.73
2023-04-20T01:43:58.771Z,5.76
2023-04-20T01:46:25.457Z,5.76
2023-04-20T01:48:52.157Z,5.76
2023-04-20T01:51:18.815Z,5.73
2023-04-20T01:53:45.721Z,5.74
2023-04-20T01:56:12.598Z,5.72
2023-04-20T01:58:39.278Z,5.72
2023-04-20T02:01:06.248Z,5.71
2023-04-20T02:03:33.068Z,5.74
2023-04-20T02:05:59.822Z,5.76
2023-04-20T02:08:26.528Z,5.79
2023-04-20T02:10:53.153Z,5.81
2023-04-20T02:13:20.087Z,5.83
2023-04-20T02:15:46.848Z,5.85
2023-04-20T02:18:13.396Z,5.86
2023-04-20T02:20:40.122Z,5.86
2023-04-20T02:23:06.807Z,5.86
2023-04-20T02:25:33.924Z,5.85
2023-04-20T02:28:00.834Z,5.85
2023-04-20T02:30:27.491Z,5.86
2023-04-20T02:32:54.296Z,5.85
2023-04-20T02:35:21.081Z,5.84
2023-04-20T02:37:47.665Z,5.84
2023-04-20T02:40:14.842Z,5.85
2023-04-20T02:42:41.516Z,5.87
2023-04-20T02:45:09.263Z,5.86
2023-04-20T02:47:36.160Z,5.82
2023-04-20T02:50:03.016Z,5.80
2023-04-20T02:52:29.621Z,5.80
2023-04-20T02:54:56.469Z,5.79
2023-04-20T02:57:23.179Z,5.77
2023-04-20T02:59:49.835Z,5.77
2023-04-20T03:02:16.724Z,5.78
2023-04-20T03:04:43.842Z,5.77
2023-04-20T03:07:10.684Z,5.77
2023-04-20T03:09:37.399Z,5.75
2023-04-20T03:12:05.050Z,5.73
2023-04-20T03:14:32.003Z,5.72
2023-04-20T03:16:58.714Z,5.70
2023-04-20T03:19:25.317Z,5.70
2023-04-20T03:21:52.123Z,5.70
2023-04-20T03:24:19.276Z,5.72
2023-04-20T03:26:45.945Z,5.74
2023-04-20T03:29:12.616Z,5.77
2023-04-20T03:31:39.290Z,5.78
2023-04-20T03:34:05.912Z,5.79
2023-04-20T03:36:32.949Z,5.81
2023-04-20T03:38:59.531Z,5.82
2023-04-20T03:41:26.495Z,5.82
2023-04-20T03:43:53.060Z,5.83
2023-04-20T03:46:22.048Z,5.86
2023-04-20T03:48:50.074Z,5.88
2023-04-20T03:51:16.718Z,5.91
2023-04-20T03:53:43.379Z,5.91
2023-04-20T03:56:10.218Z,5.91
2023-04-20T03:58:36.879Z,5.94
2023-04-20T04:01:10.596Z,5.96
2023-04-20T04:03:37.456Z,5.97
2023-04-20T04:06:04.786Z,5.98
2023-04-20T04:08:32.125Z,5.98
2023-04-20T04:10:59.473Z,5.99
2023-04-20T04:13:26.359Z,6.00
2023-04-20T04:15:53.266Z,6.03
2023-04-20T04:18:21.513Z,6.06
2023-04-20T04:20:48.259Z,6.07
2023-04-20T04:23:15.317Z,6.05
2023-04-20T04:25:42.210Z,6.05
2023-04-20T04:28:08.884Z,6.06
2023-04-20T04:30:35.537Z,6.10
2023-04-20T04:33:04.839Z,6.15
2023-04-20T04:35:34.254Z,6.17
2023-04-20T04:38:00.981Z,6.20
2023-04-20T04:40:27.496Z,6.23
2023-04-20T04:42:55.436Z,6.25
2023-04-20T04:45:22.035Z,6.26
2023-04-20T04:47:48.648Z,6.27
2023-04-20T04:50:15.285Z,6.28
2023-04-20T04:52:41.803Z,6.30
2023-04-20T04:55:09.594Z,6.32
2023-04-20T04:57:36.364Z,6.34
2023-04-20T05:00:06.858Z,6.36
2023-04-20T05:02:33.565Z,6.37
2023-04-20T05:05:00.203Z,6.36
2023-04-20T05:07:26.689Z,6.36
2023-04-20T05:09:53.178Z,6.34
2023-04-20T05:12:19.846Z,6.37
2023-04-20T05:14:46.339Z,6.39
2023-04-20T05:17:12.777Z,6.41
2023-04-20T05:19:39.215Z,6.43
2023-04-20T05:22:06.087Z,6.44
2023-04-20T05:24:32.467Z,6.42
2023-04-20T05:26:58.983Z,6.44
2023-04-20T05:29:25.546Z,6.54
2023-04-20T05:31:52.176Z,6.63
2023-04-20T05:34:18.722Z,6.69
2023-04-20T05:36:46.868Z,6.74
2023-04-20T05:39:13.632Z,6.82
2023-04-20T05:41:40.212Z,6.87
2023-04-20T05:44:06.801Z,6.90
2023-04-20T05:46:33.318Z,6.90
2023-04-20T05:48:59.765Z,6.89
2023-04-20T05:51:29.000Z,6.90
2023-04-20T05:53:55.444Z,6.92
2023-04-20T05:56:21.913Z,6.95
2023-04-20T05:58:48.701Z,6.97
2023-04-20T06:01:15.421Z,7.00
2023-04-20T06:03:42.093Z,7.04
2023-04-20T06:06:08.675Z,7.11
2023-04-20T06:08:35.320Z,7.21
2023-04-20T06:11:02.595Z,7.31
2023-04-20T06:13:29.086Z,7.42
2023-04-20T06:15:55.864Z,7.50
2023-04-20T06:18:22.739Z,7.61
2023-04-20T06:20:49.267Z,7.71
2023-04-20T06:23:16.227Z,7.81
2023-04-20T06:25:43.123Z,7.91
2023-04-20T06:28:09.913Z,7.99
2023-04-20T06:30:36.696Z,8.03
2023-04-20T06:33:03.784Z,8.03
2023-04-20T06:35:30.517Z,8.00
2023-04-20T06:37:57.583Z,7.93
2023-04-20T06:40:27.411Z,7.94
2023-04-20T06:42:54.159Z,8.02
2023-04-20T06:45:21.162Z,8.15
2023-04-20T06:47:48.112Z,8.33
2023-04-20T06:50:14.910Z,8.53
2023-04-20T06:52:41.652Z,8.66
2023-04-20T06:55:10.113Z,8.75
2023-04-20T06:57:39.672Z,8.79
2023-04-20T07:00:11.197Z,8.78
2023-04-20T07:02:49.838Z,8.74
2023-04-20T07:05:18.063Z,8.70
2023-04-20T07:07:45.437Z,8.64
2023-04-20T07:10:14.070Z,8.54
2023-04-20T07:12:43.245Z,8.43
2023-04-20T07:15:11.192Z,8.31
2023-04-20T07:17:37.768Z,8.23
2023-04-20T07:20:08.677Z,8.21
2023-04-20T07:22:36.312Z,8.23
2023-04-20T07:25:04.782Z,8.35
2023-04-20T07:27:35.090Z,8.49
2023-04-20T07:30:02.171Z,8.63
2023-04-20T07:32:29.147Z,8.72
2023-04-20T07:34:55.771Z,8.83
2023-04-20T07:37:23.249Z,8.97
2023-04-20T07:39:53.676Z,9.07
2023-04-20T07:42:21.431Z,9.16
2023-04-20T07:44:48.742Z,9.28
2023-04-20T07:47:15.688Z,9.40
2023-04-20T07:49:43.185Z,9.49
2023-04-20T07:52:16.465Z,9.58
2023-04-20T07:54:44.893Z,9.62
2023-04-20T07:57:11.592Z,9.73
2023-04-20T07:59:39.242Z,9.82
2023-04-20T08:02:06.277Z,9.95
2023-04-20T08:04:33.490Z,10.09
2023-04-20T08:07:00.738Z,10.24
2023-04-20T08:09:28.468Z,10.42
2023-04-20T08:11:55.390Z,10.47
2023-04-20T08:14:22.273Z,10.46
2023-04-20T08:16:48.983Z,10.51
2023-04-20T08:19:15.953Z,10.68
2023-04-20T08:21:43.028Z,10.79
2023-04-20T08:24:10.064Z,10.87
2023-04-20T08:26:37.004Z,10.91
2023-04-20T08:29:04.354Z,10.84
2023-04-20T08:31:31.645Z,10.83
2023-04-20T08:33:58.342Z,10.75
2023-04-20T08:36:25.087Z,10.72
2023-04-20T08:38:55.294Z,10.73
2023-04-20T08:41:22.643Z,10.83
2023-04-20T08:43:50.389Z,10.89
2023-04-20T08:46:17.652Z,10.88
2023-04-20T08:48:46.321Z,10.84
2023-04-20T08:51:16.009Z,10.72
2023-04-20T08:53:42.814Z,10.66
2023-04-20T08:56:10.019Z,10.60
2023-04-20T08:58:38.561Z,10.61
2023-04-20T09:01:05.551Z,10.69
2023-04-20T09:03:37.362Z,10.77
2023-04-20T09:06:15.326Z,10.75
2023-04-20T09:08:42.977Z,10.80
2023-04-20T09:11:22.037Z,10.83
2023-04-20T09:14:10.239Z,10.91
2023-04-20T09:16:39.416Z,11.04
2023-04-20T09:19:08.382Z,11.18
2023-04-20T09:21:35.878Z,11.31
2023-04-20T09:24:09.349Z,11.44
2023-04-20T09:26:36.389Z,11.55
2023-04-20T09:29:03.827Z,11.59
2023-04-20T09:31:30.844Z,11.61
2023-04-20T09:34:02.223Z,11.61
2023-04-20T09:36:42.365Z,11.65
2023-04-20T09:39:13.986Z,11.78
2023-04-20T09:41:41.906Z,11.86
2023-04-20T09:44:09.964Z,11.94
2023-04-20T09:46:38.364Z,11.97
2023-04-20T09:49:07.346Z,12.10
2023-04-20T09:51:37.417Z,12.32
2023-04-20T09:54:06.503Z,12.65
2023-04-20T09:56:35.070Z,12.82
2023-04-20T09:59:03.678Z,12.93
2023-04-20T10:01:33.588Z,13.03
2023-04-20T10:04:01.612Z,13.13
2023-04-20T10:06:30.817Z,13.22
2023-04-20T10:08:57.757Z,13.29
2023-04-20T10:11:48.928Z,13.34
2023-04-20T10:14:26.121Z,13.23
2023-04-20T10:17:29.504Z,13.11
2023-04-20T10:19:56.390Z,12.98
2023-04-20T10:22:32.816Z,13.09
2023-04-20T10:25:01.193Z,13.37
2023-04-20T10:27:28.963Z,13.44
2023-04-20T10:29:55.801Z,13.34
2023-04-20T10:32:29.145Z,13.30
2023-04-20T10:35:13.935Z,13.26
2023-04-20T10:37:51.271Z,13.36
2023-04-20T10:40:26.870Z,13.55
2023-04-20T10:42:53.707Z,13.65
2023-04-20T10:45:21.643Z,13.75
2023-04-20T10:47:48.487Z,13.88
2023-04-20T10:50:16.185Z,14.00
2023-04-20T10:52:44.325Z,14.24
2023-04-20T10:55:22.294Z,14.50
2023-04-20T10:57:49.794Z,14.68
2023-04-20T11:00:16.495Z,14.90
2023-04-20T11:02:50.757Z,14.96
2023-04-20T11:05:18.907Z,15.06
2023-04-20T11:07:52.469Z,15.23
2023-04-20T11:10:19.923Z,15.44
2023-04-20T11:12:46.766Z,15.45
2023-04-20T11:15:13.875Z,15.36
2023-04-20T11:17:40.651Z,15.29
2023-04-20T11:20:14.375Z,15.27
2023-04-20T11:22:42.313Z,15.22
2023-04-20T11:25:10.751Z,15.14
2023-04-20T11:27:38.816Z,15.21
2023-04-20T11:30:06.486Z,15.24
2023-04-20T11:32:34.054Z,15.26
2023-04-20T11:35:07.855Z,15.23
2023-04-20T11:37:46.845Z,15.02
2023-04-20T11:40:15.082Z,14.77
2023-04-20T11:42:41.902Z,14.81
2023-04-20T11:45:08.923Z,14.75
2023-04-20T11:47:35.707Z,14.65
2023-04-20T11:50:02.762Z,14.57
2023-04-20T11:52:29.667Z,14.50
2023-04-20T11:54:56.391Z,14.36
2023-04-20T11:57:24.024Z,14.30
2023-04-20T11:59:51.127Z,14.33
2023-04-20T12:02:17.776Z,14.51
2023-04-20T12:04:44.517Z,14.82
2023-04-20T12:07:11.428Z,15.36
2023-04-20T12:09:38.402Z,16.13
2023-04-20T12:12:06.110Z,16.48
2023-04-20T12:14:36.235Z,16.63
2023-04-20T12:17:04.509Z,16.96
2023-04-20T12:19:32.096Z,17.29
2023-04-20T12:21:58.984Z,17.25
2023-04-20T12:24:26.440Z,17.36
2023-04-20T12:26:53.307Z,17.50
2023-04-20T12:29:20.297Z,17.79
2023-04-20T12:31:47.587Z,18.27
2023-04-20T12:34:14.135Z,18.67
2023-04-20T12:36:40.897Z,19.20
2023-04-20T12:39:07.841Z,19.81
2023-04-20T12:41:34.860Z,20.60
2023-04-20T12:44:04.155Z,21.50
2023-04-20T12:46:33.011Z,21.91
2023-04-20T12:48:59.612Z,21.56
2023-04-20T12:51:27.108Z,21.06
2023-04-20T12:53:53.497Z,20.88
2023-04-20T12:56:20.205Z,20.46
2023-04-20T12:58:47.268Z,20.05
2023-04-20T13:01:13.821Z,19.75
2023-04-20T13:03:42.507Z,19.39
2023-04-20T13:06:13.604Z,19.03
2023-04-20T13:08:40.914Z,18.85
2023-04-20T13:11:07.473Z,18.63
2023-04-20T13:13:34.528Z,18.49
2023-04-20T13:16:01.145Z,18.24
2023-04-20T13:18:27.800Z,18.20
2023-04-20T13:20:54.788Z,18.02
2023-04-20T13:23:21.735Z,17.99
2023-04-20T13:25:48.661Z,17.95
2023-04-20T13:28:15.145Z,17.82
2023-04-20T13:30:41.902Z,17.55
2023-04-20T13:33:08.524Z,17.11
2023-04-20T13:35:36.289Z,16.70
2023-04-20T13:38:04.747Z,16.28
2023-04-20T13:40:31.823Z,15.88
2023-04-20T13:42:58.494Z,15.67
2023-04-20T13:45:25.516Z,15.46
2023-04-20T13:47:52.332Z,15.29
2023-04-20T13:50:19.289Z,15.11
2023-04-20T13:52:45.803Z,14.81
2023-04-20T13:55:12.423Z,14.57
2023-04-20T13:57:39.306Z,14.39
2023-04-20T14:00:07.402Z,14.20
2023-04-20T14:02:34.359Z,14.01
2023-04-20T14:05:02.054Z,13.82
2023-04-20T14:07:28.781Z,13.68
2023-04-20T14:09:56.578Z,13.49
2023-04-20T14:12:23.386Z,13.27
2023-04-20T14:14:50.213Z,13.08
2023-04-20T14:17:16.966Z,12.88
2023-04-20T14:19:43.557Z,12.74
2023-04-20T14:22:10.459Z,12.61
2023-04-20T14:24:37.190Z,12.45
2023-04-20T14:27:04.062Z,12.30
2023-04-20T14:29:31.184Z,12.18
2023-04-20T14:31:57.980Z,12.07
2023-04-20T14:34:24.765Z,11.95
2023-04-20T14:36:51.640Z,11.89
2023-04-20T14:39:21.405Z,11.83
2023-04-20T14:41:48.505Z,11.79
2023-04-20T14:44:15.158Z,11.79
2023-04-20T14:46:42.415Z,11.76
2023-04-20T14:49:10.406Z,11.66
2023-04-20T14:51:37.191Z,11.57
2023-04-20T14:54:04.233Z,11.49
2023-04-20T14:56:30.961Z,11.37
2023-04-20T14:58:59.456Z,11.29
2023-04-20T15:01:27.757Z,11.18
2023-04-20T15:03:54.717Z,11.09
2023-04-20T15:06:21.618Z,11.02
2023-04-20T15:08:48.519Z,10.98
2023-04-20T15:11:15.106Z,10.88
2023-04-20T15:13:43.569Z,10.75
2023-04-20T15:16:10.595Z,10.61
2023-04-20T15:18:37.181Z,10.47
2023-04-20T15:21:04.043Z,10.39
2023-04-20T15:23:31.041Z,10.33
2023-04-20T15:25:57.742Z,10.25
2023-04-20T15:28:24.299Z,10.22
2023-04-20T15:30:51.186Z,10.17
2023-04-20T15:33:18.012Z,10.11
2023-04-20T15:35:44.628Z,10.07
2023-04-20T15:38:11.425Z,10.00
2023-04-20T15:40:38.846Z,9.91
2023-04-20T15:43:06.528Z,9.85
2023-04-20T15:45:33.269Z,9.77
2023-04-20T15:48:00.842Z,9.71
2023-04-20T15:50:27.926Z,9.64
2023-04-20T15:52:54.956Z,9.57
2023-04-20T15:55:22.161Z,9.49
2023-04-20T15:57:49.385Z,9.40
2023-04-20T16:00:16.668Z,9.33
2023-04-20T16:02:43.642Z,9.28
2023-04-20T16:05:10.574Z,9.28
2023-04-20T16:07:37.578Z,9.27
2023-04-20T16:10:06.669Z,9.25
2023-04-20T16:12:33.737Z,9.25
2023-04-20T16:15:01.773Z,9.25
2023-04-20T16:17:28.681Z,9.26
2023-04-20T16:19:55.885Z,9.30
2023-04-20T16:22:22.713Z,9.33
2023-04-20T16:24:49.243Z,9.32
2023-04-20T16:27:16.046Z,9.34
2023-04-20T16:29:43.537Z,9.36
2023-04-20T16:32:11.769Z,9.39
2023-04-20T16:34:38.704Z,9.43
2023-04-20T16:37:05.558Z,9.46
2023-04-20T16:39:32.652Z,9.51
2023-04-20T16:41:59.452Z,9.55
2023-04-20T16:44:26.295Z,9.56
2023-04-20T16:46:53.273Z,9.58
2023-04-20T16:49:20.358Z,9.63
2023-04-20T16:51:47.690Z,9.71
2023-04-20T16:54:14.440Z,9.79
2023-04-20T16:56:41.434Z,9.87
2023-04-20T16:59:08.324Z,9.96
2023-04-20T17:01:35.436Z,10.06
2023-04-20T17:04:02.328Z,10.13
2023-04-20T17:06:29.509Z,10.19
2023-04-20T17:09:01.185Z,10.28
2023-04-20T17:11:27.761Z,10.36
2023-04-20T17:13:56.670Z,10.43
2023-04-20T17:16:23.342Z,10.45
2023-04-20T17:18:50.105Z,10.47
2023-04-20T17:21:16.810Z,10.51
2023-04-20T17:23:43.666Z,10.57
2023-04-20T17:26:10.534Z,10.63
2023-04-20T17:28:37.335Z,10.69
2023-04-20T17:31:04.072Z,10.70
2023-04-20T17:33:30.700Z,10.70
2023-04-20T17:35:57.549Z,10.68
2023-04-20T17:38:24.622Z,10.69
2023-04-20T17:40:51.690Z,10.68
2023-04-20T17:43:18.917Z,10.70
2023-04-20T17:45:48.195Z,10.69
2023-04-20T17:48:14.884Z,10.65
2023-04-20T17:50:41.563Z,10.62
2023-04-20T17:53:08.648Z,10.60
2023-04-20T17:55:35.623Z,10.53
2023-04-20T17:58:02.685Z,10.50
2023-04-20T18:00:29.407Z,10.49
2023-04-20T18:02:56.351Z,10.45
2023-04-20T18:05:23.204Z,10.43
2023-04-20T18:07:49.799Z,10.42
2023-04-20T18:10:16.678Z,10.40
2023-04-20T18:12:44.891Z,10.41
2023-04-20T18:15:12.438Z,10.42
2023-04-20T18:17:39.106Z,10.41
2023-04-20T18:20:06.800Z,10.39
2023-04-20T18:22:35.469Z,10.37
2023-04-20T18:25:02.111Z,10.35
2023-04-20T18:27:28.950Z,10.36
2023-04-20T18:29:59.540Z,10.36
2023-04-20T18:32:26.816Z,10.34
2023-04-20T18:34:53.649Z,10.30
2023-04-20T18:37:20.470Z,10.27
2023-04-20T18:39:47.158Z,10.25
2023-04-20T18:42:13.725Z,10.23
2023-04-20T18:44:40.603Z,10.24
2023-04-20T18:47:07.374Z,10.22
2023-04-20T18:49:34.844Z,10.22
2023-04-20T18:52:01.657Z,10.23
2023-04-20T18:54:28.208Z,10.23
2023-04-20T18:56:55.459Z,10.24
2023-04-20T18:59:21.976Z,10.23
2023-04-20T19:01:48.726Z,10.23
2023-04-20T19:04:16.141Z,10.23
2023-04-20T19:06:42.799Z,10.24
2023-04-20T19:09:09.473Z,10.26
2023-04-20T19:11:35.850Z,10.27
2023-04-20T19:14:02.649Z,10.29
2023-04-20T19:16:31.215Z,10.31
2023-04-20T19:18:58.465Z,10.34
2023-04-20T19:21:25.413Z,10.33
2023-04-20T19:23:52.037Z,10.31
2023-04-20T19:26:19.294Z,10.32
2023-04-20T19:28:45.944Z,10.33
2023-04-20T19:31:13.207Z,10.32
2023-04-20T19:33:40.612Z,10.33
2023-04-20T19:36:08.208Z,10.37
2023-04-20T19:38:37.408Z,10.39
2023-04-20T19:41:05.223Z,10.41
2023-04-20T19:43:36.185Z,10.42
2023-04-20T19:46:02.761Z,10.40
2023-04-20T19:48:29.545Z,10.38
2023-04-20T19:50:57.711Z,10.39
2023-04-20T19:53:25.201Z,10.40
2023-04-20T19:55:52.176Z,10.38
2023-04-20T19:58:19.669Z,10.36
2023-04-20T20:00:46.398Z,10.35
2023-04-20T20:03:15.843Z,10.34
2023-04-20T20:05:43.858Z,10.33
2023-04-20T20:08:11.752Z,10.27
2023-04-20T20:10:38.614Z,10.23
2023-04-20T20:13:05.729Z,10.18
2023-04-20T20:15:32.458Z,10.12
2023-04-20T20:17:59.595Z,10.07
2023-04-20T20:20:32.437Z,10.02
2023-04-20T20:22:59.712Z,9.96
2023-04-20T20:25:26.491Z,9.92
2023-04-20T20:27:53.002Z,9.87
2023-04-20T20:30:19.550Z,9.84
2023-04-20T20:32:46.641Z,9.80
2023-04-20T20:35:13.357Z,9.77
2023-04-20T20:37:41.118Z,9.75
2023-04-20T20:40:14.758Z,9.72
2023-04-20T20:42:45.193Z,9.69
2023-04-20T20:45:12.744Z,9.68
2023-04-20T20:47:41.398Z,9.66
2023-04-20T20:50:09.092Z,9.66
2023-04-20T20:52:35.735Z,9.64
2023-04-20T20:55:02.545Z,9.65
2023-04-20T20:57:29.178Z,9.66
2023-04-20T20:59:56.108Z,9.67
2023-04-20T21:02:23.091Z,9.67
2023-04-20T21:04:49.813Z,9.64
2023-04-20T21:07:16.616Z,9.60
2023-04-20T21:09:43.116Z,9.57
2023-04-20T21:12:09.938Z,9.53
2023-04-20T21:14:37.273Z,9.46
2023-04-20T21:17:04.707Z,9.39
2023-04-20T21:19:32.255Z,9.33
2023-04-20T21:21:58.895Z,9.25
2023-04-20T21:24:25.614Z,9.17
2023-04-20T21:26:52.593Z,9.08
2023-04-20T21:29:19.771Z,9.02
2023-04-20T21:31:46.707Z,8.95
2023-04-20T21:34:13.414Z,8.91
2023-04-20T21:36:40.030Z,8.87
2023-04-20T21:39:06.764Z,8.86
2023-04-20T21:41:33.367Z,8.86
2023-04-20T21:44:01.217Z,8.88
2023-04-20T21:46:28.272Z,8.91
2023-04-20T21:48:54.883Z,8.95
2023-04-20T21:51:21.730Z,8.98
2023-04-20T21:53:48.350Z,9.02
2023-04-20T21:56:15.176Z,9.05
2023-04-20T21:58:41.813Z,9.06
2023-04-20T22:01:08.749Z,9.04
2023-04-20T22:03:37.230Z,9.02
2023-04-20T22:06:04.813Z,8.98
2023-04-20T22:08:31.312Z,8.93
2023-04-20T22:10:58.005Z,8.87
2023-04-20T22:13:24.900Z,8.81
2023-04-20T22:15:52.750Z,8.75
2023-04-20T22:18:19.702Z,8.69
2023-04-20T22:20:46.513Z,8.64
2023-04-20T22:23:13.327Z,8.59
2023-04-20T22:25:40.744Z,8.55
2023-04-20T22:28:07.688Z,8.52
2023-04-20T22:30:34.592Z,8.49
2023-04-20T22:33:01.422Z,8.46
2023-04-20T22:35:28.918Z,8.43
2023-04-20T22:37:56.290Z,8.41
2023-04-20T22:40:23.881Z,8.40
2023-04-20T22:42:50.991Z,8.37
2023-04-20T22:45:19.751Z,8.37
2023-04-20T22:47:46.970Z,8.36
2023-04-20T22:50:13.969Z,8.35
2023-04-20T22:52:41.668Z,8.34
2023-04-20T22:55:09.494Z,8.33
2023-04-20T22:57:36.420Z,8.31
2023-04-20T23:00:07.652Z,8.29
2023-04-20T23:02:34.652Z,8.24
2023-04-20T23:05:01.449Z,8.20
2023-04-20T23:07:28.054Z,8.15
2023-04-20T23:09:56.444Z,8.11
2023-04-20T23:12:23.293Z,8.07
2023-04-20T23:14:50.750Z,8.04
2023-04-20T23:17:17.972Z,8.02
2023-04-20T23:19:44.820Z,8.00
2023-04-20T23:22:11.369Z,8.00
2023-04-20T23:24:37.962Z,7.99
2023-04-20T23:27:04.761Z,7.99
2023-04-20T23:29:32.952Z,8.03
2023-04-20T23:32:00.752Z,8.07
2023-04-20T23:34:27.542Z,8.11
2023-04-20T23:36:54.293Z,8.13
2023-04-20T23:39:21.417Z,8.15
2023-04-20T23:41:48.481Z,8.15
2023-04-20T23:44:15.412Z,8.15
2023-04-20T23:46:42.152Z,8.15
2023-04-20T23:49:08.808Z,8.14
2023-04-20T23:51:35.512Z,8.13
2023-04-20T23:54:02.237Z,8.12
2023-04-20T23:56:28.778Z,8.10
2023-04-20T23:58:55.562Z,8.09
